Hookdale, Illinois
Current Conditions -  °F | °C
As of 1:15 PM on Tuesday 21 Oct 2014 (Local Time) from KSLO Reporting Station
Scattered Clouds Scattered Clouds  
Wind Chill: 65°   Ceiling: Unl
Heat Index: 65°   Visibility: 10mi
Dew Point: 47°   Wind: 9mph
Humidity: 51%   Direction: 350°N
Pressure: 30.12"   Gusts: NA
Location:  38.8666°N, 89.3202°W
Report Text: KSLO 211815Z AUTO 35008KT 10SM SCT043 18/08 A3012 RMK AO2 T01840082
Loading
Personal Weather Stations






























Interactive Weather Map
Tropical Storm Tracking
New forecast layout! Learn more

10-Day Weather Forecast

Advertisements
Track Severe Weather on mobile